createdAt,value
2018-07-03T00:00:53.839Z,100205.22
2018-07-03T00:02:59.181Z,100199.94
2018-07-03T00:05:05.083Z,100193.67
2018-07-03T00:07:10.505Z,100203.94
2018-07-03T00:09:15.826Z,100206.50
2018-07-03T00:11:20.799Z,100202.63
2018-07-03T00:13:26.074Z,100211.61
2018-07-03T00:15:31.414Z,100201.83
2018-07-03T00:17:36.784Z,100198.11
2018-07-03T00:19:42.182Z,100199.38
2018-07-03T00:21:47.631Z,100207.28
2018-07-03T00:23:54.136Z,100203.85
2018-07-03T00:25:59.530Z,100206.08
2018-07-03T00:28:05.609Z,100203.80
2018-07-03T00:30:10.984Z,100213.55
2018-07-03T00:32:16.373Z,100216.14
2018-07-03T00:34:21.696Z,100222.81
2018-07-03T00:36:27.092Z,100218.20
2018-07-03T00:38:33.471Z,100221.56
2018-07-03T00:40:38.763Z,100218.89
2018-07-03T00:42:44.055Z,100219.61
2018-07-03T00:44:49.611Z,100213.91
2018-07-03T00:46:54.894Z,100210.88
2018-07-03T00:48:59.875Z,100203.77
2018-07-03T00:51:05.281Z,100207.81
2018-07-03T00:53:10.604Z,100207.25
2018-07-03T00:55:15.630Z,100219.87
2018-07-03T00:57:21.083Z,100211.66
2018-07-03T00:59:26.356Z,100208.42
2018-07-03T01:01:31.557Z,100211.34
2018-07-03T01:03:36.624Z,100205.44
2018-07-03T01:05:41.827Z,100207.87
2018-07-03T01:07:47.174Z,100206.05
2018-07-03T01:09:52.477Z,100207.79
2018-07-03T01:11:57.911Z,100204.31
2018-07-03T01:14:03.579Z,100207.50
2018-07-03T01:16:09.375Z,100213.03
2018-07-03T01:18:14.693Z,100212.81
2018-07-03T01:20:20.093Z,100211.88
2018-07-03T01:22:25.488Z,100208.77
2018-07-03T01:24:30.828Z,100213.52
2018-07-03T01:26:36.096Z,100220.58
2018-07-03T01:28:41.602Z,100217.81
2018-07-03T01:30:46.967Z,100220.72
2018-07-03T01:32:52.272Z,100217.11
2018-07-03T01:34:57.560Z,100218.20
2018-07-03T01:37:03.239Z,100219.32
2018-07-03T01:39:08.865Z,100229.50
2018-07-03T01:41:14.244Z,100226.83
2018-07-03T01:43:19.581Z,100225.13
2018-07-03T01:45:24.911Z,100226.47
2018-07-03T01:47:30.187Z,100227.06
2018-07-03T01:49:35.472Z,100225.48
2018-07-03T01:51:40.791Z,100223.79
2018-07-03T01:53:46.100Z,100224.91
2018-07-03T01:55:51.452Z,100233.02
2018-07-03T01:57:56.760Z,100226.11
2018-07-03T02:00:02.081Z,100235.92
2018-07-03T02:02:07.436Z,100233.41
2018-07-03T02:04:13.363Z,100229.05
2018-07-03T02:06:18.741Z,100234.38
2018-07-03T02:08:24.035Z,100238.00
2018-07-03T02:10:29.541Z,100241.52
2018-07-03T02:12:34.887Z,100237.41
2018-07-03T02:14:40.286Z,100246.09
2018-07-03T02:18:49.964Z,100244.53
2018-07-03T02:20:55.253Z,100238.56
2018-07-03T02:23:00.604Z,100234.56
2018-07-03T02:25:05.928Z,100236.52
2018-07-03T02:27:11.276Z,100232.91
2018-07-03T02:29:16.719Z,100238.09
2018-07-03T02:31:22.123Z,100230.83
2018-07-03T02:33:27.463Z,100226.72
2018-07-03T02:35:32.801Z,100229.23
2018-07-03T02:37:38.083Z,100239.28
2018-07-03T02:39:43.544Z,100236.73
2018-07-03T02:41:48.872Z,100235.04
2018-07-03T02:43:54.340Z,100240.73
2018-07-03T02:45:59.964Z,100245.22
2018-07-03T02:48:05.443Z,100244.16
2018-07-03T02:50:10.887Z,100240.16
2018-07-03T02:52:16.850Z,100243.42
2018-07-03T02:54:22.180Z,100249.84
2018-07-03T02:56:27.573Z,100259.03
2018-07-03T02:58:32.863Z,100256.05
2018-07-03T03:00:38.152Z,100256.44
2018-07-03T03:02:43.491Z,100257.42
2018-07-03T03:04:49.306Z,100258.99
2018-07-03T03:06:54.624Z,100259.16
2018-07-03T03:08:59.929Z,100255.17
2018-07-03T03:11:05.324Z,100263.39
2018-07-03T03:13:10.660Z,100266.56
2018-07-03T03:15:16.753Z,100263.39
2018-07-03T03:17:22.670Z,100261.94
2018-07-03T03:19:27.984Z,100257.58
2018-07-03T03:21:33.610Z,100266.20
2018-07-03T03:23:38.952Z,100266.80
2018-07-03T03:25:44.290Z,100270.91
2018-07-03T03:27:49.927Z,100269.09
2018-07-03T03:29:55.542Z,100271.41
2018-07-03T03:32:00.875Z,100267.42
2018-07-03T03:34:06.355Z,100270.20
2018-07-03T03:36:11.652Z,100275.89
2018-07-03T03:38:17.014Z,100272.86
2018-07-03T03:40:22.447Z,100278.07
2018-07-03T03:42:27.782Z,100272.97
2018-07-03T03:44:33.140Z,100273.70
2018-07-03T03:46:38.461Z,100274.30
2018-07-03T03:48:43.822Z,100279.02
2018-07-03T03:50:49.222Z,100285.05
2018-07-03T03:52:54.635Z,100282.75
2018-07-03T03:54:59.973Z,100284.69
2018-07-03T03:57:06.708Z,100279.14
2018-07-03T03:59:12.111Z,100281.06
2018-07-03T04:01:17.470Z,100284.95
2018-07-03T04:03:22.774Z,100286.28
2018-07-03T04:05:28.123Z,100292.83
2018-07-03T04:07:33.471Z,100293.67
2018-07-03T04:09:38.817Z,100294.53
2018-07-03T04:11:44.141Z,100298.86
2018-07-03T04:13:49.539Z,100295.12
2018-07-03T04:15:54.965Z,100299.33
2018-07-03T04:18:00.264Z,100294.37
2018-07-03T04:20:06.047Z,100298.52
2018-07-03T04:22:11.418Z,100294.63
2018-07-03T04:24:16.887Z,100297.89
2018-07-03T04:26:22.235Z,100295.49
2018-07-03T04:28:27.548Z,100296.34
2018-07-03T04:30:32.863Z,100292.72
2018-07-03T04:32:38.124Z,100287.25
2018-07-03T04:34:43.684Z,100291.14
2018-07-03T04:36:49.305Z,100292.25
2018-07-03T04:38:54.585Z,100291.51
2018-07-03T04:40:59.884Z,100297.20
2018-07-03T04:43:05.311Z,100293.91
2018-07-03T04:45:10.652Z,100294.17
2018-07-03T04:47:16.945Z,100296.46
2018-07-03T04:49:22.215Z,100292.09
2018-07-03T04:51:27.568Z,100287.98
2018-07-03T04:53:32.911Z,100290.65
2018-07-03T04:55:38.222Z,100286.55
2018-07-03T04:57:43.565Z,100287.61
2018-07-03T04:59:48.930Z,100293.41
2018-07-03T05:01:54.297Z,100294.37
2018-07-03T05:03:59.764Z,100292.92
2018-07-03T05:06:05.193Z,100286.27
2018-07-03T05:08:10.544Z,100289.30
2018-07-03T05:10:16.910Z,100286.16
2018-07-03T05:12:22.240Z,100297.66
2018-07-03T05:14:27.684Z,100291.97
2018-07-03T05:16:32.998Z,100285.05
2018-07-03T05:18:38.414Z,100291.33
2018-07-03T05:20:43.864Z,100289.50
2018-07-03T05:22:49.509Z,100296.03
2018-07-03T05:24:54.877Z,100300.39
2018-07-03T05:27:00.268Z,100309.19
2018-07-03T05:29:05.930Z,100305.20
2018-07-03T05:31:11.353Z,100295.76
2018-07-03T05:33:17.324Z,100301.55
2018-07-03T05:35:22.608Z,100303.14
2018-07-03T05:37:27.908Z,100306.60
2018-07-03T05:39:33.262Z,100313.73
2018-07-03T05:41:38.984Z,100314.80
2018-07-03T05:43:44.347Z,100324.23
2018-07-03T05:45:49.800Z,100322.16
2018-07-03T05:47:55.142Z,100326.98
2018-07-03T05:50:00.618Z,100320.92
2018-07-03T05:52:06.174Z,100320.53
2018-07-03T05:54:11.550Z,100324.38
2018-07-03T05:56:17.315Z,100328.51
2018-07-03T05:58:22.580Z,100329.09
2018-07-03T06:00:27.958Z,100335.15
2018-07-03T06:02:33.278Z,100335.00
2018-07-03T06:04:38.666Z,100335.36
2018-07-03T06:06:44.013Z,100334.12
2018-07-03T06:08:49.346Z,100337.64
2018-07-03T06:10:55.019Z,100337.86
2018-07-03T06:13:00.349Z,100339.30
2018-07-03T06:15:06.272Z,100342.00
2018-07-03T06:17:11.686Z,100343.50
2018-07-03T06:19:17.320Z,100344.59
2018-07-03T06:21:22.922Z,100335.84
2018-07-03T06:23:28.071Z,100331.68
2018-07-03T06:25:33.078Z,100330.77
2018-07-03T06:27:38.295Z,100334.92
2018-07-03T06:29:43.688Z,100333.77
2018-07-03T06:31:49.047Z,100340.66
2018-07-03T06:33:54.352Z,100332.03
2018-07-03T06:35:59.718Z,100340.00
2018-07-03T06:38:05.166Z,100337.71
2018-07-03T06:40:10.544Z,100334.14
2018-07-03T06:42:15.844Z,100326.32
2018-07-03T06:44:21.177Z,100332.80
2018-07-03T06:46:26.499Z,100327.34
2018-07-03T06:48:31.907Z,100332.73
2018-07-03T06:50:37.250Z,100336.42
2018-07-03T06:52:42.572Z,100338.28
2018-07-03T06:54:47.887Z,100338.00
2018-07-03T06:56:54.272Z,100337.59
2018-07-03T06:58:59.926Z,100329.84
2018-07-03T07:01:05.635Z,100337.76
2018-07-03T07:03:10.962Z,100337.00
2018-07-03T07:05:17.354Z,100334.12
2018-07-03T07:07:22.578Z,100336.50
2018-07-03T07:09:27.989Z,100336.94
2018-07-03T07:11:33.355Z,100336.44
2018-07-03T07:13:38.632Z,100330.36
2018-07-03T07:15:44.525Z,100339.66
2018-07-03T07:17:49.943Z,100332.71
2018-07-03T07:19:55.260Z,100339.23
2018-07-03T07:22:00.648Z,100339.91
2018-07-03T07:24:06.049Z,100332.56
2018-07-03T07:26:11.041Z,100334.45
2018-07-03T07:28:17.298Z,100334.86
2018-07-03T07:30:22.912Z,100341.47
2018-07-03T07:32:28.248Z,100332.84
2018-07-03T07:34:33.763Z,100331.64
2018-07-03T07:36:39.091Z,100339.09
2018-07-03T07:38:44.504Z,100332.69
2018-07-03T07:40:49.835Z,100329.44
2018-07-03T07:42:55.225Z,100332.38
2018-07-03T07:45:00.570Z,100330.55
2018-07-03T07:47:05.936Z,100336.62
2018-07-03T07:49:11.266Z,100344.80
2018-07-03T07:51:17.514Z,100341.97
2018-07-03T07:53:22.901Z,100341.23
2018-07-03T07:55:28.288Z,100342.13
2018-07-03T07:57:33.587Z,100340.79
2018-07-03T07:59:38.976Z,100344.20
2018-07-03T08:01:44.439Z,100344.45
2018-07-03T08:03:49.779Z,100352.11
2018-07-03T08:05:55.120Z,100349.23
2018-07-03T08:08:00.799Z,100343.05
2018-07-03T08:10:06.184Z,100354.52
2018-07-03T08:12:11.667Z,100353.28
2018-07-03T08:14:17.627Z,100357.13
2018-07-03T08:16:22.973Z,100351.83
2018-07-03T08:18:28.549Z,100356.96
2018-07-03T08:20:33.909Z,100362.57
2018-07-03T08:22:39.236Z,100359.70
2018-07-03T08:24:44.831Z,100358.86
2018-07-03T08:26:50.238Z,100362.73
2018-07-03T08:28:55.731Z,100364.28
2018-07-03T08:31:01.041Z,100360.55
2018-07-03T08:33:06.792Z,100359.88
2018-07-03T08:35:12.166Z,100358.73
2018-07-03T08:37:17.750Z,100352.81
2018-07-03T08:39:23.110Z,100357.55
2018-07-03T08:41:28.429Z,100354.67
2018-07-03T08:43:33.746Z,100349.11
2018-07-03T08:45:38.925Z,100343.89
2018-07-03T08:47:44.282Z,100342.05
2018-07-03T08:49:49.954Z,100343.55
2018-07-03T08:51:55.382Z,100339.33
2018-07-03T08:54:01.204Z,100342.69
2018-07-03T08:56:06.652Z,100339.00
2018-07-03T08:58:12.094Z,100339.84
2018-07-03T09:00:17.958Z,100341.34
2018-07-03T09:02:23.321Z,100337.33
2018-07-03T09:04:28.838Z,100344.06
2018-07-03T09:06:34.300Z,100343.05
2018-07-03T09:08:39.693Z,100345.41
2018-07-03T09:10:45.090Z,100348.94
2018-07-03T09:12:50.419Z,100343.40
2018-07-03T09:14:55.852Z,100346.93
2018-07-03T09:17:06.416Z,100347.11
2018-07-03T09:19:11.806Z,100344.25
2018-07-03T09:21:17.394Z,100348.78
2018-07-03T09:23:22.760Z,100350.31
2018-07-03T09:25:28.127Z,100351.31
2018-07-03T09:27:33.820Z,100349.95
2018-07-03T09:29:39.410Z,100352.47
2018-07-03T09:31:44.862Z,100351.30
2018-07-03T09:33:50.249Z,100349.43
2018-07-03T09:35:55.979Z,100348.42
2018-07-03T09:38:01.323Z,100353.45
2018-07-03T09:40:07.025Z,100357.18
2018-07-03T09:42:12.684Z,100349.23
2018-07-03T09:44:18.181Z,100350.09
2018-07-03T09:46:23.966Z,100348.42
2018-07-03T09:48:29.430Z,100344.87
2018-07-03T09:50:34.895Z,100344.51
2018-07-03T09:52:40.487Z,100351.77
2018-07-03T09:54:45.894Z,100341.13
2018-07-03T09:56:51.676Z,100343.64
2018-07-03T09:58:57.234Z,100348.00
2018-07-03T10:01:08.274Z,100351.22
2018-07-03T10:03:13.597Z,100350.34
2018-07-03T10:05:19.105Z,100343.27
2018-07-03T10:07:24.466Z,100344.45
2018-07-03T10:09:29.809Z,100341.89
2018-07-03T10:11:35.108Z,100347.61
2018-07-03T10:13:40.462Z,100347.11
2018-07-03T10:15:45.815Z,100344.39
2018-07-03T10:17:51.147Z,100345.04
2018-07-03T10:19:56.470Z,100338.80
2018-07-03T10:22:01.812Z,100340.31
2018-07-03T10:24:07.237Z,100335.60
2018-07-03T10:26:12.567Z,100336.58
2018-07-03T10:28:18.077Z,100335.20
2018-07-03T10:30:23.817Z,100334.88
2018-07-03T10:32:29.112Z,100333.16
2018-07-03T10:34:34.488Z,100329.27
2018-07-03T10:36:39.898Z,100334.64
2018-07-03T10:38:45.317Z,100326.01
2018-07-03T10:40:50.704Z,100329.18
2018-07-03T10:42:56.094Z,100323.27
2018-07-03T10:45:01.538Z,100325.09
2018-07-03T10:47:06.885Z,100325.91
2018-07-03T10:49:12.253Z,100321.31
2018-07-03T10:51:17.972Z,100315.06
2018-07-03T10:53:23.358Z,100318.60
2018-07-03T10:55:28.675Z,100308.94
2018-07-03T10:57:34.125Z,100307.04
2018-07-03T10:59:39.517Z,100309.88
2018-07-03T11:01:44.914Z,100304.63
2018-07-03T11:03:50.553Z,100307.97
2018-07-03T11:05:55.948Z,100310.88
2018-07-03T11:08:01.274Z,100299.19
2018-07-03T11:10:06.687Z,100303.20
2018-07-03T11:12:12.012Z,100302.85
2018-07-03T11:14:17.991Z,100300.11
2018-07-03T11:16:23.360Z,100295.67
2018-07-03T11:18:28.736Z,100304.78
2018-07-03T11:20:34.146Z,100292.24
2018-07-03T11:22:39.462Z,100291.23
2018-07-03T11:24:44.932Z,100298.83
2018-07-03T11:26:50.271Z,100294.27
2018-07-03T11:28:55.633Z,100288.34
2018-07-03T11:31:01.011Z,100292.20
2018-07-03T11:33:06.521Z,100289.83
2018-07-03T11:35:12.281Z,100288.81
2018-07-03T11:37:18.045Z,100284.08
2018-07-03T11:39:23.436Z,100279.30
2018-07-03T11:41:29.268Z,100278.78
2018-07-03T11:43:34.724Z,100284.85
2018-07-03T11:45:40.046Z,100283.50
2018-07-03T11:47:45.656Z,100276.74
2018-07-03T11:49:50.969Z,100280.92
2018-07-03T11:51:56.302Z,100280.23
2018-07-03T11:54:01.845Z,100271.74
2018-07-03T11:56:07.255Z,100275.11
2018-07-03T11:58:12.688Z,100270.03
2018-07-03T12:00:18.826Z,100262.77
2018-07-03T12:02:24.152Z,100269.98
2018-07-03T12:04:29.575Z,100261.52
2018-07-03T12:06:34.974Z,100263.66
2018-07-03T12:08:40.391Z,100262.25
2018-07-03T12:10:52.217Z,100264.39
2018-07-03T12:12:57.709Z,100265.05
2018-07-03T12:15:03.132Z,100262.98
2018-07-03T12:17:08.607Z,100263.31
2018-07-03T12:19:14.048Z,100259.59
2018-07-03T12:21:19.433Z,100255.02
2018-07-03T12:23:26.144Z,100258.87
2018-07-03T12:25:40.181Z,100263.25
2018-07-03T12:27:45.533Z,100264.61
2018-07-03T12:29:51.452Z,100259.86
2018-07-03T12:31:56.832Z,100256.47
2018-07-03T12:34:02.260Z,100253.88
2018-07-03T12:36:12.517Z,100262.84
2018-07-03T12:38:18.204Z,100263.69
2018-07-03T12:40:23.623Z,100258.72
2018-07-03T12:42:28.942Z,100258.06
2018-07-03T12:44:34.311Z,100258.19
2018-07-03T12:46:40.102Z,100256.98
2018-07-03T12:48:45.851Z,100250.84
2018-07-03T12:50:51.604Z,100241.70
2018-07-03T12:52:57.051Z,100245.19
2018-07-03T12:55:02.383Z,100249.41
2018-07-03T12:57:08.103Z,100244.59
2018-07-03T12:59:13.481Z,100242.98
2018-07-03T13:01:18.947Z,100245.11
2018-07-03T13:10:32.333Z,100237.88
2018-07-03T13:16:53.518Z,100240.45
2018-07-03T13:18:59.000Z,100235.80
2018-07-03T13:21:04.505Z,100242.83
2018-07-03T13:23:09.535Z,100229.94
2018-07-03T13:25:14.937Z,100230.56
2018-07-03T13:27:20.390Z,100238.18
2018-07-03T13:29:25.774Z,100229.54
2018-07-03T13:31:31.179Z,100223.28
2018-07-03T13:33:36.506Z,100225.80
2018-07-03T13:35:41.859Z,100220.38
2018-07-03T13:37:47.301Z,100219.87
2018-07-03T13:39:52.389Z,100214.59
2018-07-03T13:41:57.645Z,100220.31
2018-07-03T13:44:03.056Z,100225.14
2018-07-03T13:46:08.518Z,100229.75
2018-07-03T13:48:15.333Z,100214.00
2018-07-03T13:50:21.159Z,100217.55
2018-07-03T13:52:26.830Z,100227.34
2018-07-03T13:54:32.629Z,100224.52
2018-07-03T13:56:38.939Z,100219.02
2018-07-03T13:58:44.390Z,100223.08
2018-07-03T14:00:50.026Z,100229.45
2018-07-03T14:02:55.751Z,100230.80
2018-07-03T14:05:08.319Z,100230.63
2018-07-03T14:07:14.395Z,100227.91
2018-07-03T14:09:19.746Z,100233.66
2018-07-03T14:11:25.178Z,100220.63
2018-07-03T14:13:30.620Z,100223.84
2018-07-03T14:15:36.048Z,100226.74
2018-07-03T14:17:41.427Z,100228.50
2018-07-03T14:19:46.940Z,100220.27
2018-07-03T14:21:52.726Z,100223.27
2018-07-03T14:23:58.083Z,100220.89
2018-07-03T14:26:04.462Z,100221.65
2018-07-03T14:28:10.092Z,100216.70
2018-07-03T14:30:15.512Z,100212.04
2018-07-03T14:32:20.962Z,100214.53
2018-07-03T14:34:26.372Z,100212.31
2018-07-03T14:36:31.749Z,100218.06
2018-07-03T14:38:37.191Z,100227.00
2018-07-03T14:40:42.528Z,100216.71
2018-07-03T14:42:47.949Z,100218.88
2018-07-03T14:44:53.363Z,100214.63
2018-07-03T14:46:58.826Z,100220.50
2018-07-03T14:49:04.464Z,100221.64
2018-07-03T14:51:09.926Z,100216.69
2018-07-03T14:53:15.507Z,100215.62
2018-07-03T14:55:20.948Z,100220.66
2018-07-03T14:57:26.595Z,100217.44
2018-07-03T14:59:32.404Z,100215.03
2018-07-03T15:01:38.007Z,100213.16
2018-07-03T15:03:50.515Z,100205.86
2018-07-03T15:05:56.953Z,100206.52
2018-07-03T15:08:02.330Z,100200.25
2018-07-03T15:10:07.775Z,100206.00
2018-07-03T15:12:13.160Z,100200.58
2018-07-03T15:14:18.956Z,100199.92
2018-07-03T15:16:24.308Z,100195.53
2018-07-03T15:18:34.967Z,100196.37
2018-07-03T15:20:40.555Z,100196.89
2018-07-03T15:22:45.917Z,100198.76
2018-07-03T15:24:51.330Z,100191.04
2018-07-03T15:26:56.720Z,100194.78
2018-07-03T15:29:02.061Z,100200.34
2018-07-03T15:31:07.544Z,100199.83
2018-07-03T15:33:12.893Z,100193.05
2018-07-03T15:35:18.600Z,100200.95
2018-07-03T15:37:23.965Z,100197.22
2018-07-03T15:39:30.196Z,100197.73
2018-07-03T15:41:36.417Z,100197.22
2018-07-03T15:43:53.409Z,100195.24
2018-07-03T15:45:58.773Z,100193.88
2018-07-03T15:48:04.283Z,100192.53
2018-07-03T15:50:10.796Z,100189.08
2018-07-03T15:52:16.161Z,100192.45
2018-07-03T15:54:21.675Z,100197.13
2018-07-03T15:56:27.063Z,100193.39
2018-07-03T15:58:32.404Z,100193.06
2018-07-03T16:00:37.867Z,100187.97
2018-07-03T16:03:56.756Z,100182.03
2018-07-03T16:07:15.199Z,100183.80
2018-07-03T16:09:20.495Z,100181.36
2018-07-03T16:11:25.893Z,100183.42
2018-07-03T16:13:31.287Z,100183.51
2018-07-03T16:15:36.747Z,100181.91
2018-07-03T16:17:41.817Z,100189.06
2018-07-03T16:19:52.311Z,100180.80
2018-07-03T16:21:57.848Z,100181.72
2018-07-03T16:24:03.264Z,100183.27
2018-07-03T16:26:08.693Z,100179.20
2018-07-03T16:28:14.077Z,100181.58
2018-07-03T16:30:19.449Z,100173.64
2018-07-03T16:32:24.850Z,100173.72
2018-07-03T16:34:30.261Z,100176.62
2018-07-03T16:36:35.667Z,100175.81
2018-07-03T16:38:41.140Z,100172.87
2018-07-03T16:40:46.409Z,100171.01
2018-07-03T16:42:51.752Z,100168.44
2018-07-03T16:44:57.167Z,100164.16
2018-07-03T16:47:02.528Z,100163.97
2018-07-03T16:49:07.932Z,100161.16
2018-07-03T16:51:13.352Z,100162.37
2018-07-03T16:53:18.975Z,100154.75
2018-07-03T16:55:24.329Z,100155.59
2018-07-03T16:57:29.749Z,100158.20
2018-07-03T16:59:35.173Z,100155.67
2018-07-03T17:01:40.981Z,100160.06
2018-07-03T17:03:46.454Z,100152.45
2018-07-03T17:05:51.855Z,100152.83
2018-07-03T17:07:57.288Z,100158.14
2018-07-03T17:10:02.973Z,100158.33
2018-07-03T17:12:08.622Z,100157.81
2018-07-03T17:14:14.212Z,100165.24
2018-07-03T17:16:19.676Z,100167.55
2018-07-03T17:18:25.692Z,100160.91
2018-07-03T17:20:31.252Z,100161.86
2018-07-03T17:22:36.673Z,100160.31
2018-07-03T17:24:42.101Z,100166.05
2018-07-03T17:26:47.638Z,100164.48
2018-07-03T17:28:53.205Z,100171.72
2018-07-03T17:30:58.662Z,100161.50
2018-07-03T17:33:04.175Z,100162.51
2018-07-03T17:35:09.622Z,100160.09
2018-07-03T17:37:15.016Z,100156.87
2018-07-03T17:39:20.556Z,100161.26
2018-07-03T17:41:36.879Z,100164.30
2018-07-03T17:44:13.366Z,100159.58
2018-07-03T17:46:19.030Z,100165.05
2018-07-03T17:48:24.728Z,100164.10
2018-07-03T17:50:30.865Z,100169.58
2018-07-03T17:52:38.534Z,100171.53
2018-07-03T17:54:55.487Z,100166.70
2018-07-03T17:57:09.625Z,100168.66
2018-07-03T17:59:15.620Z,100167.56
2018-07-03T18:01:23.897Z,100165.96
2018-07-03T18:06:12.381Z,100169.37
2018-07-03T18:08:18.556Z,100166.75
2018-07-03T18:10:24.078Z,100169.06
2018-07-03T18:12:29.456Z,100171.30
2018-07-03T18:14:34.937Z,100172.73
2018-07-03T18:16:40.356Z,100168.55
2018-07-03T18:18:45.874Z,100165.38
2018-07-03T18:20:51.229Z,100172.03
2018-07-03T18:22:56.782Z,100175.10
2018-07-03T18:25:01.951Z,100173.48
2018-07-03T18:27:07.584Z,100179.81
2018-07-03T18:29:13.206Z,100178.71
2018-07-03T18:31:18.701Z,100178.59
2018-07-03T18:33:24.259Z,100179.98
2018-07-03T18:35:29.619Z,100179.72
2018-07-03T18:37:34.999Z,100182.13
2018-07-03T18:39:47.258Z,100182.70
2018-07-03T18:41:52.604Z,100187.52
2018-07-03T18:43:58.089Z,100185.89
2018-07-03T18:46:03.500Z,100191.03
2018-07-03T18:48:08.916Z,100192.78
2018-07-03T18:50:14.315Z,100187.94
2018-07-03T18:52:19.772Z,100188.30
2018-07-03T18:54:24.947Z,100187.52
2018-07-03T18:56:30.188Z,100183.85
2018-07-03T18:58:35.567Z,100189.10
2018-07-03T19:00:40.938Z,100190.18
2018-07-03T19:02:46.354Z,100192.94
2018-07-03T19:04:51.794Z,100187.73
2018-07-03T19:06:57.909Z,100186.62
2018-07-03T19:09:03.585Z,100194.78
2018-07-03T19:11:09.133Z,100183.51
2018-07-03T19:13:14.465Z,100189.78
2018-07-03T19:15:19.861Z,100186.28
2018-07-03T19:17:25.382Z,100188.53
2018-07-03T19:19:31.583Z,100190.44
2018-07-03T19:21:36.962Z,100193.16
2018-07-03T19:23:42.417Z,100189.33
2018-07-03T19:25:47.791Z,100187.18
2018-07-03T19:27:53.196Z,100187.41
2018-07-03T19:29:58.604Z,100194.17
2018-07-03T19:32:04.032Z,100187.80
2018-07-03T19:34:09.456Z,100191.05
2018-07-03T19:36:14.907Z,100192.23
2018-07-03T19:38:20.205Z,100196.84
2018-07-03T19:40:25.645Z,100190.81
2018-07-03T19:42:31.088Z,100189.84
2018-07-03T19:44:36.487Z,100187.48
2018-07-03T19:46:41.943Z,100196.30
2018-07-03T19:48:47.353Z,100191.11
2018-07-03T19:50:53.082Z,100188.66
2018-07-03T19:52:58.488Z,100196.45
2018-07-03T19:55:03.899Z,100198.78
2018-07-03T19:57:09.392Z,100197.81
2018-07-03T19:59:14.800Z,100190.39
2018-07-03T20:01:20.164Z,100197.14
2018-07-03T20:03:25.551Z,100198.19
2018-07-03T20:05:30.955Z,100204.25
2018-07-03T20:07:36.454Z,100200.27
2018-07-03T20:09:42.086Z,100202.87
2018-07-03T20:11:47.515Z,100207.11
2018-07-03T20:13:53.235Z,100203.97
2018-07-03T20:15:58.657Z,100201.62
2018-07-03T20:18:04.081Z,100198.45
2018-07-03T20:20:09.542Z,100197.63
2018-07-03T20:22:14.941Z,100200.02
2018-07-03T20:24:20.477Z,100195.83
2018-07-03T20:26:25.913Z,100202.95
2018-07-03T20:28:31.258Z,100197.06
2018-07-03T20:30:36.715Z,100198.59
2018-07-03T20:32:42.341Z,100196.27
2018-07-03T20:34:48.512Z,100193.41
2018-07-03T20:36:54.558Z,100191.91
2018-07-03T20:38:59.981Z,100193.09
2018-07-03T20:41:06.753Z,100199.99
2018-07-03T20:43:12.112Z,100197.13
2018-07-03T20:45:18.414Z,100196.95
2018-07-03T20:47:23.770Z,100191.09
2018-07-03T20:49:28.870Z,100193.61
2018-07-03T20:51:34.181Z,100198.27
2018-07-03T20:53:39.533Z,100196.25
2018-07-03T20:55:45.097Z,100199.13
2018-07-03T20:57:50.401Z,100197.76
2018-07-03T20:59:56.093Z,100204.98
2018-07-03T21:02:01.425Z,100197.92
2018-07-03T21:04:06.622Z,100190.52
2018-07-03T21:06:12.012Z,100198.73
2018-07-03T21:08:17.339Z,100191.52
2018-07-03T21:10:22.746Z,100194.16
2018-07-03T21:12:28.099Z,100190.63
2018-07-03T21:14:33.436Z,100192.44
2018-07-03T21:16:38.768Z,100194.47
2018-07-03T21:18:43.813Z,100195.12
2018-07-03T21:20:49.056Z,100197.31
2018-07-03T21:22:54.428Z,100204.18
2018-07-03T21:25:06.429Z,100195.42
2018-07-03T21:27:11.753Z,100194.05
2018-07-03T21:29:17.059Z,100196.34
2018-07-03T21:31:22.433Z,100195.64
2018-07-03T21:33:27.795Z,100184.89
2018-07-03T21:35:33.153Z,100185.56
2018-07-03T21:37:38.528Z,100184.04
2018-07-03T21:39:43.918Z,100186.22
2018-07-03T21:41:49.051Z,100191.88
2018-07-03T21:43:54.296Z,100200.17
2018-07-03T21:45:59.709Z,100204.52
2018-07-03T21:48:10.132Z,100208.03
2018-07-03T21:50:15.444Z,100206.48
2018-07-03T21:52:20.799Z,100214.34
2018-07-03T21:54:26.193Z,100219.55
2018-07-03T21:56:31.504Z,100223.37
2018-07-03T21:58:36.973Z,100227.37
2018-07-03T22:00:42.612Z,100230.68
2018-07-03T22:02:47.970Z,100232.70
2018-07-03T22:04:53.341Z,100233.55
2018-07-03T22:06:58.622Z,100234.69
2018-07-03T22:09:05.069Z,100241.74
2018-07-03T22:11:10.347Z,100244.08
2018-07-03T22:13:15.649Z,100243.06
2018-07-03T22:15:20.996Z,100246.03
2018-07-03T22:17:26.264Z,100254.91
2018-07-03T22:19:31.572Z,100252.84
2018-07-03T22:21:37.677Z,100258.53
2018-07-03T22:23:43.054Z,100260.97
2018-07-03T22:25:48.381Z,100259.80
2018-07-03T22:27:53.725Z,100259.59
2018-07-03T22:29:59.075Z,100254.88
2018-07-03T22:32:04.403Z,100252.55
2018-07-03T22:34:09.698Z,100262.98
2018-07-03T22:36:15.027Z,100264.33
2018-07-03T22:38:20.328Z,100265.11
2018-07-03T22:40:25.304Z,100261.55
2018-07-03T22:42:30.507Z,100268.75
2018-07-03T22:44:35.824Z,100261.87
2018-07-03T22:46:41.148Z,100266.53
2018-07-03T22:48:46.485Z,100270.55
2018-07-03T22:50:51.807Z,100266.00
2018-07-03T22:52:57.140Z,100267.48
2018-07-03T22:55:02.489Z,100269.53
2018-07-03T22:57:07.782Z,100268.02
2018-07-03T22:59:13.138Z,100272.25
2018-07-03T23:01:18.406Z,100262.72
2018-07-03T23:03:23.735Z,100262.54
2018-07-03T23:05:29.073Z,100259.36
2018-07-03T23:07:34.413Z,100262.89
2018-07-03T23:09:39.792Z,100259.71
2018-07-03T23:11:45.100Z,100259.71
2018-07-03T23:13:50.628Z,100256.53
2018-07-03T23:15:55.917Z,100258.02
2018-07-03T23:18:01.220Z,100255.83
2018-07-03T23:20:06.552Z,100254.67
2018-07-03T23:22:11.838Z,100255.66
2018-07-03T23:24:17.159Z,100252.27
2018-07-03T23:26:22.434Z,100252.62
2018-07-03T23:28:27.694Z,100249.24
2018-07-03T23:30:32.794Z,100250.05
2018-07-03T23:32:37.985Z,100250.02
2018-07-03T23:34:43.292Z,100251.27
2018-07-03T23:36:48.316Z,100253.38
2018-07-03T23:38:53.546Z,100257.16
2018-07-03T23:40:58.871Z,100254.23
2018-07-03T23:43:04.161Z,100259.70
2018-07-03T23:45:09.484Z,100258.59
2018-07-03T23:47:31.648Z,100254.81
2018-07-03T23:49:53.709Z,100255.91
2018-07-03T23:52:15.969Z,100254.34
2018-07-03T23:54:37.960Z,100257.39
2018-07-03T23:57:00.460Z,100254.97
2018-07-03T23:59:22.656Z,100248.38
